Time;durP1;ratioP1;P1;durP2;ratioP2;P2;SDS_P1;SDS_P2;PMS_P1;PMS_P2;Temp;Humidity;BMP_temperature;BMP_pressure;BME280_temperature;BME280_humidity;BME280_pressure;Samples;Min_cycle;Max_cycle;Signal;HPM_P1;HPM_P2
2022/12/02 00:00:06;;;;;;;;;;;;;;;;;;5028933;28;19963;-63
2022/12/02 00:02:32;;;;;;;;;;;;;;;;;;5011307;28;19933;-63
2022/12/02 00:04:57;;;;;;;;;;;;;;;;;;5021831;28;19913;-62
2022/12/02 00:07:23;;;;;;;;;;;;;;;;;;5011620;28;20367;-62
2022/12/02 00:09:49;;;;;;;;;;;;;;;;;;5010110;28;20457;-63
2022/12/02 00:12:15;;;;;;;;;;;;;;;;;;5014734;28;19920;-63
2022/12/02 00:14:41;;;;;;;;;;;;;;;;;;5029311;28;20004;-63
2022/12/02 00:17:07;;;;;;;;;;;;;;;;;;5029234;28;20382;-61
2022/12/02 00:19:33;;;;;;;;;;;;;;;;;;5019017;28;19964;-62
2022/12/02 00:21:59;;;;;;;;;;;;;;;;;;5010068;28;20345;-63
2022/12/02 00:24:24;;;;;;;;;;;;;;;;;;5019502;28;19921;-63
2022/12/02 00:26:50;;;;;;;;;;;;;;;;;;5028941;28;19952;-63
2022/12/02 00:29:16;;;;;;;;;;;;;;;;;;5029210;28;19913;-63
2022/12/02 00:31:42;;;;;;;;;;;;;;;;;;5013301;28;20032;-62
2022/12/02 00:34:08;;;;;;;;;;;;;;;;;;5010844;28;20022;-62
2022/12/02 00:36:34;;;;;;;;;;;;;;;;;;5024600;28;19917;-62
2022/12/02 00:39:00;;;;;;;;;;;;;;;;;;5029012;28;19991;-64
2022/12/02 00:41:26;;;;;;;;;;;;;;;;;;5029531;28;19968;-62
2022/12/02 00:46:36;;;;;;;;;;;;;;;;;;5028857;28;19925;-63
2022/12/02 00:49:02;;;;;;;;;;;;;;;;;;5029038;28;19913;-63
2022/12/02 00:51:28;;;;;;;;;;;;;;;;;;5019421;28;19913;-63
2022/12/02 00:53:54;;;;;;;;;;;;;;;;;;5010406;28;19948;-63
2022/12/02 00:56:20;;;;;;;;;;;;;;;;;;5009608;28;19910;-62
2022/12/02 00:58:46;;;;;;;;;;;;;;;;;;5009843;28;19914;-63
2022/12/02 01:01:11;;;;;;;;;;;;;;;;;;5024331;28;20458;-63
2022/12/02 01:03:37;;;;;;;;;;;;;;;;;;5028812;28;19920;-62
2022/12/02 01:06:03;;;;;;;;;;;;;;;;;;5029156;28;20349;-62
2022/12/02 01:08:29;;;;;;;;;;;;;;;;;;5027179;28;19961;-63
2022/12/02 01:10:55;;;;;;;;;;;;;;;;;;5028839;28;19913;-59
2022/12/02 01:13:21;;;;;;;;;;;;;;;;;;5029298;28;20292;-62
2022/12/02 01:15:47;;;;;;;;;;;;;;;;;;5028803;28;19959;-61
2022/12/02 01:18:13;;;;;;;;;;;;;;;;;;5028726;28;20492;-62
2022/12/02 01:20:39;;;;;;;;;;;;;;;;;;5029122;28;19913;-62
2022/12/02 01:23:05;;;;;;;;;;;;;;;;;;5028746;28;19916;-63
2022/12/02 01:25:30;;;;;;;;;;;;;;;;;;5028309;28;19909;-63
2022/12/02 01:27:56;;;;;;;;;;;;;;;;;;5028717;28;19956;-63
2022/12/02 01:30:22;;;;;;;;;;;;;;;;;;5028789;28;19909;-62
2022/12/02 01:32:48;;;;;;;;;;;;;;;;;;5028554;28;19917;-63
2022/12/02 01:35:14;;;;;;;;;;;;;;;;;;5028596;28;20564;-63
2022/12/02 01:37:40;;;;;;;;;;;;;;;;;;5028930;28;19964;-63
2022/12/02 01:40:06;;;;;;;;;;;;;;;;;;5028584;28;20286;-64
2022/12/02 01:42:32;;;;;;;;;;;;;;;;;;5032234;28;19910;-63
2022/12/02 01:44:57;;;;;;;;;;;;;;;;;;5031890;28;19909;-63
2022/12/02 01:47:23;;;;;;;;;;;;;;;;;;5022216;28;19938;-62
2022/12/02 01:49:50;;;;;;;;;;;;;;;;;;5022967;28;20299;-63
2022/12/02 01:52:16;;;;;;;;;;;;;;;;;;5031959;28;20390;-63
2022/12/02 01:54:41;;;;;;;;;;;;;;;;;;5031639;28;19913;-63
2022/12/02 01:57:07;;;;;;;;;;;;;;;;;;5032271;28;20393;-64
2022/12/02 01:59:33;;;;;;;;;;;;;;;;;;5029621;28;19913;-64
2022/12/02 02:01:59;;;;;;;;;;;;;;;;;;5014553;28;19916;-64
2022/12/02 02:04:25;;;;;;;;;;;;;;;;;;5031818;28;20000;-64
2022/12/02 02:06:51;;;;;;;;;;;;;;;;;;5032612;28;19929;-64
2022/12/02 02:09:17;;;;;;;;;;;;;;;;;;5022289;28;19918;-65
2022/12/02 02:11:43;;;;;;;;;;;;;;;;;;5012619;28;20400;-64
2022/12/02 02:14:09;;;;;;;;;;;;;;;;;;5012519;28;19916;-64
2022/12/02 02:16:34;;;;;;;;;;;;;;;;;;5013768;28;19920;-64
2022/12/02 02:19:00;;;;;;;;;;;;;;;;;;5011930;28;19959;-63
2022/12/02 02:21:26;;;;;;;;;;;;;;;;;;5012664;28;19914;-63
2022/12/02 02:23:52;;;;;;;;;;;;;;;;;;5011492;28;19914;-65
2022/12/02 02:26:18;;;;;;;;;;;;;;;;;;5012142;28;19959;-66
2022/12/02 02:28:44;;;;;;;;;;;;;;;;;;5024724;28;19913;-65
2022/12/02 02:31:10;;;;;;;;;;;;;;;;;;5025678;28;20374;-65
2022/12/02 02:33:36;;;;;;;;;;;;;;;;;;5029664;28;19978;-65
2022/12/02 02:36:01;;;;;;;;;;;;;;;;;;5031303;28;20027;-65
2022/12/02 02:38:27;;;;;;;;;;;;;;;;;;5030375;28;20509;-65
2022/12/02 02:40:53;;;;;;;;;;;;;;;;;;5030911;28;19913;-64
2022/12/02 02:43:19;;;;;;;;;;;;;;;;;;5030892;28;19964;-64
2022/12/02 02:45:45;;;;;;;;;;;;;;;;;;5031091;28;20537;-64
2022/12/02 02:48:11;;;;;;;;;;;;;;;;;;5030366;28;19913;-65
2022/12/02 02:50:37;;;;;;;;;;;;;;;;;;5030732;28;19913;-65
2022/12/02 02:53:03;;;;;;;;;;;;;;;;;;5029561;28;19920;-64
2022/12/02 02:55:29;;;;;;;;;;;;;;;;;;5031020;28;20370;-65
2022/12/02 02:57:54;;;;;;;;;;;;;;;;;;5030349;28;19921;-64
2022/12/02 03:00:20;;;;;;;;;;;;;;;;;;5030193;28;19956;-65
2022/12/02 03:02:46;;;;;;;;;;;;;;;;;;5030564;28;19936;-64
2022/12/02 03:05:12;;;;;;;;;;;;;;;;;;5030369;28;19921;-65
2022/12/02 03:07:38;;;;;;;;;;;;;;;;;;5034032;28;20552;-65
2022/12/02 03:10:04;;;;;;;;;;;;;;;;;;5012731;28;19914;-64
2022/12/02 03:12:30;;;;;;;;;;;;;;;;;;5030381;28;20332;-65
2022/12/02 03:14:56;;;;;;;;;;;;;;;;;;5030299;28;19963;-65
2022/12/02 03:17:21;;;;;;;;;;;;;;;;;;5030088;28;19918;-64
2022/12/02 03:19:47;;;;;;;;;;;;;;;;;;5030062;28;19909;-63
2022/12/02 03:22:13;;;;;;;;;;;;;;;;;;5029759;28;20305;-65
2022/12/02 03:24:39;;;;;;;;;;;;;;;;;;5029172;28;19920;-64
2022/12/02 03:27:05;;;;;;;;;;;;;;;;;;5030269;28;19935;-65
2022/12/02 03:29:31;;;;;;;;;;;;;;;;;;5030085;28;20292;-65
2022/12/02 03:31:57;;;;;;;;;;;;;;;;;;5029777;28;20342;-64
2022/12/02 03:34:23;;;;;;;;;;;;;;;;;;5030152;28;19909;-66
2022/12/02 03:36:49;;;;;;;;;;;;;;;;;;5029035;28;19913;-65
2022/12/02 03:39:14;;;;;;;;;;;;;;;;;;5030003;28;19920;-64
2022/12/02 03:41:40;;;;;;;;;;;;;;;;;;5029850;28;20020;-65
2022/12/02 03:44:06;;;;;;;;;;;;;;;;;;5029621;28;19913;-64
2022/12/02 03:46:32;;;;;;;;;;;;;;;;;;5029878;28;19959;-63
2022/12/02 03:48:58;;;;;;;;;;;;;;;;;;5029699;28;19963;-65
2022/12/02 03:51:24;;;;;;;;;;;;;;;;;;5029535;28;20262;-65
2022/12/02 03:53:50;;;;;;;;;;;;;;;;;;5019993;28;19914;-64
2022/12/02 03:56:16;;;;;;;;;;;;;;;;;;5012302;28;20427;-64
2022/12/02 03:58:41;;;;;;;;;;;;;;;;;;5026119;28;19921;-66
2022/12/02 04:01:07;;;;;;;;;;;;;;;;;;5029548;28;19917;-64
2022/12/02 04:03:33;;;;;;;;;;;;;;;;;;5015963;28;19916;-65
2022/12/02 04:05:59;;;;;;;;;;;;;;;;;;5028899;28;19921;-65
2022/12/02 04:08:25;;;;;;;;;;;;;;;;;;5026085;28;19921;-65
2022/12/02 04:10:51;;;;;;;;;;;;;;;;;;5010294;28;19921;-64
2022/12/02 04:13:17;;;;;;;;;;;;;;;;;;5010611;28;20015;-65
2022/12/02 04:15:43;;;;;;;;;;;;;;;;;;5011298;28;19969;-65
2022/12/02 04:18:09;;;;;;;;;;;;;;;;;;5029240;28;20301;-65
2022/12/02 04:20:35;;;;;;;;;;;;;;;;;;5029404;28;19916;-65
2022/12/02 04:23:01;;;;;;;;;;;;;;;;;;5029193;28;20420;-63
2022/12/02 04:25:27;;;;;;;;;;;;;;;;;;5029130;28;19913;-64
2022/12/02 04:27:53;;;;;;;;;;;;;;;;;;5015826;28;19913;-65
2022/12/02 04:30:18;;;;;;;;;;;;;;;;;;5010360;28;19960;-65
2022/12/02 04:32:44;;;;;;;;;;;;;;;;;;5010710;28;20293;-65
2022/12/02 04:35:10;;;;;;;;;;;;;;;;;;5009819;28;20293;-65
2022/12/02 04:37:36;;;;;;;;;;;;;;;;;;5028001;28;19925;-65
2022/12/02 04:40:02;;;;;;;;;;;;;;;;;;5011144;28;20028;-65
2022/12/02 04:42:28;;;;;;;;;;;;;;;;;;5020728;28;19913;-65
2022/12/02 04:44:54;;;;;;;;;;;;;;;;;;5028887;28;19928;-65
2022/12/02 04:47:20;;;;;;;;;;;;;;;;;;5029230;28;19964;-65
2022/12/02 04:49:45;;;;;;;;;;;;;;;;;;5028363;28;19916;-65
2022/12/02 04:52:11;;;;;;;;;;;;;;;;;;5028691;28;19909;-63
2022/12/02 04:54:37;;;;;;;;;;;;;;;;;;5028699;28;20004;-65
2022/12/02 04:57:03;;;;;;;;;;;;;;;;;;5028434;28;19983;-65
2022/12/02 04:59:29;;;;;;;;;;;;;;;;;;5029003;28;19959;-65
2022/12/02 05:01:55;;;;;;;;;;;;;;;;;;5028513;28;20313;-66
2022/12/02 05:04:21;;;;;;;;;;;;;;;;;;5028307;28;19968;-66
2022/12/02 05:06:47;;;;;;;;;;;;;;;;;;5028455;28;19987;-65
2022/12/02 05:09:13;;;;;;;;;;;;;;;;;;5017416;28;19914;-65
2022/12/02 05:11:38;;;;;;;;;;;;;;;;;;5024001;28;19914;-65
2022/12/02 05:14:04;;;;;;;;;;;;;;;;;;5028252;28;19948;-65
2022/12/02 05:16:30;;;;;;;;;;;;;;;;;;5016584;28;19913;-65
2022/12/02 05:18:56;;;;;;;;;;;;;;;;;;5013860;28;19972;-65
2022/12/02 05:21:22;;;;;;;;;;;;;;;;;;5024987;28;20355;-65
2022/12/02 05:23:48;;;;;;;;;;;;;;;;;;5012755;28;19989;-64
2022/12/02 05:26:14;;;;;;;;;;;;;;;;;;5013022;28;20263;-65
2022/12/02 05:28:40;;;;;;;;;;;;;;;;;;5012753;28;19913;-65
2022/12/02 05:31:05;;;;;;;;;;;;;;;;;;5014695;28;19964;-65
2022/12/02 05:33:31;;;;;;;;;;;;;;;;;;5012609;28;19914;-65
2022/12/02 05:35:57;;;;;;;;;;;;;;;;;;5016200;28;20370;-64
2022/12/02 05:38:23;;;;;;;;;;;;;;;;;;5024672;28;19917;-63
2022/12/02 05:40:49;;;;;;;;;;;;;;;;;;5031747;28;19917;-64
2022/12/02 05:43:15;;;;;;;;;;;;;;;;;;5031336;28;19923;-62
2022/12/02 05:45:41;;;;;;;;;;;;;;;;;;5013982;28;19913;-63
2022/12/02 05:48:06;;;;;;;;;;;;;;;;;;5018609;28;19909;-63
2022/12/02 05:50:32;;;;;;;;;;;;;;;;;;5017061;28;19917;-61
2022/12/02 05:52:58;;;;;;;;;;;;;;;;;;5031511;28;19940;-63
2022/12/02 05:55:24;;;;;;;;;;;;;;;;;;5031702;28;20369;-63
2022/12/02 05:57:50;;;;;;;;;;;;;;;;;;5021273;28;20017;-64
2022/12/02 06:00:16;;;;;;;;;;;;;;;;;;5012549;28;19964;-64
2022/12/02 06:02:42;;;;;;;;;;;;;;;;;;5025032;28;19909;-64
2022/12/02 06:05:08;;;;;;;;;;;;;;;;;;5011805;28;20388;-64
2022/12/02 06:07:34;;;;;;;;;;;;;;;;;;5022650;28;19920;-64
2022/12/02 06:09:59;;;;;;;;;;;;;;;;;;5012276;28;19992;-64
2022/12/02 06:12:25;;;;;;;;;;;;;;;;;;5013196;28;19910;-64
2022/12/02 06:14:51;;;;;;;;;;;;;;;;;;5012004;28;19913;-64
2022/12/02 06:17:17;;;;;;;;;;;;;;;;;;5019753;28;19921;-64
2022/12/02 06:19:43;;;;;;;;;;;;;;;;;;5030882;28;20354;-64
2022/12/02 06:22:09;;;;;;;;;;;;;;;;;;5030755;28;19919;-64
2022/12/02 06:24:35;;;;;;;;;;;;;;;;;;5024067;28;20367;-64
2022/12/02 06:27:01;;;;;;;;;;;;;;;;;;5031027;28;19917;-64
2022/12/02 06:29:27;;;;;;;;;;;;;;;;;;5030674;28;19996;-64
2022/12/02 06:31:53;;;;;;;;;;;;;;;;;;5030960;28;19917;-64
2022/12/02 06:34:18;;;;;;;;;;;;;;;;;;5031149;28;19995;-64
2022/12/02 06:36:44;;;;;;;;;;;;;;;;;;5030746;28;20303;-63
2022/12/02 06:39:10;;;;;;;;;;;;;;;;;;5018796;28;19921;-63
2022/12/02 06:41:36;;;;;;;;;;;;;;;;;;5012296;28;20449;-64
2022/12/02 06:46:47;;;;;;;;;;;;;;;;;;5030593;28;19943;-65
2022/12/02 06:49:13;;;;;;;;;;;;;;;;;;5031454;28;19913;-64
2022/12/02 06:51:38;;;;;;;;;;;;;;;;;;5030833;28;19913;-64
2022/12/02 06:54:04;;;;;;;;;;;;;;;;;;5030307;28;20003;-63
2022/12/02 06:56:30;;;;;;;;;;;;;;;;;;5030860;28;19913;-64
2022/12/02 06:58:56;;;;;;;;;;;;;;;;;;5011176;28;20281;-63
2022/12/02 07:01:22;;;;;;;;;;;;;;;;;;5012086;28;19916;-63
2022/12/02 07:03:49;;;;;;;;;;;;;;;;;;5011255;28;19914;-63
2022/12/02 07:06:15;;;;;;;;;;;;;;;;;;5021467;28;19971;-63
2022/12/02 07:08:41;;;;;;;;;;;;;;;;;;5025319;28;19913;-66
2022/12/02 07:11:06;;;;;;;;;;;;;;;;;;5030623;28;19913;-68
2022/12/02 07:13:32;;;;;;;;;;;;;;;;;;5026833;28;19917;-73
2022/12/02 07:15:58;;;;;;;;;;;;;;;;;;5026656;28;20012;-77
2022/12/02 07:18:24;;;;;;;;;;;;;;;;;;5025327;28;20031;-73
2022/12/02 07:20:50;;;;;;;;;;;;;;;;;;5013761;28;19917;-76
2022/12/02 07:23:16;;;;;;;;;;;;;;;;;;5012788;28;19910;-78
2022/12/02 07:25:42;;;;;;;;;;;;;;;;;;5023906;28;19909;-77
2022/12/02 07:28:08;;;;;;;;;;;;;;;;;;5030525;28;19913;-76
2022/12/02 07:30:34;;;;;;;;;;;;;;;;;;5029732;28;19928;-76
2022/12/02 07:32:59;;;;;;;;;;;;;;;;;;5029810;28;19920;-76
2022/12/02 07:35:25;;;;;;;;;;;;;;;;;;5030203;28;19913;-78
2022/12/02 07:37:51;;;;;;;;;;;;;;;;;;5010929;28;19917;-74
2022/12/02 07:40:17;;;;;;;;;;;;;;;;;;5015457;28;19996;-77
2022/12/02 07:42:43;;;;;;;;;;;;;;;;;;5016957;28;19920;-75
2022/12/02 07:45:09;;;;;;;;;;;;;;;;;;5019215;28;19924;-76
2022/12/02 07:47:35;;;;;;;;;;;;;;;;;;5019479;28;20340;-75
2022/12/02 07:50:01;;;;;;;;;;;;;;;;;;5018641;28;19913;-75
2022/12/02 07:52:27;;;;;;;;;;;;;;;;;;5017215;28;19917;-77
2022/12/02 07:54:53;;;;;;;;;;;;;;;;;;5012899;28;20669;-76
2022/12/02 07:57:19;;;;;;;;;;;;;;;;;;5017588;28;19932;-73
2022/12/02 07:59:45;;;;;;;;;;;;;;;;;;5012148;28;19917;-75
2022/12/02 08:02:11;;;;;;;;;;;;;;;;;;5019697;28;19928;-74
2022/12/02 08:04:37;;;;;;;;;;;;;;;;;;5016318;28;20409;-76
2022/12/02 08:07:02;;;;;;;;;;;;;;;;;;5015275;28;19917;-73
2022/12/02 08:09:28;;;;;;;;;;;;;;;;;;5017921;28;19913;-75
2022/12/02 08:11:54;;;;;;;;;;;;;;;;;;5014545;28;20004;-73
2022/12/02 08:14:20;;;;;;;;;;;;;;;;;;5017321;28;19917;-73
2022/12/02 08:16:46;;;;;;;;;;;;;;;;;;5010527;28;19922;-73
2022/12/02 08:19:12;;;;;;;;;;;;;;;;;;5019450;28;19923;-73
2022/12/02 08:21:39;;;;;;;;;;;;;;;;;;5012896;28;19917;-73
2022/12/02 08:24:05;;;;;;;;;;;;;;;;;;5015864;28;19918;-71
2022/12/02 08:26:31;;;;;;;;;;;;;;;;;;5017770;28;19968;-74
2022/12/02 08:28:57;;;;;;;;;;;;;;;;;;5020182;28;19972;-74
2022/12/02 08:31:23;;;;;;;;;;;;;;;;;;5011942;28;19913;-72
2022/12/02 08:33:48;;;;;;;;;;;;;;;;;;5017243;28;20390;-71
2022/12/02 08:36:14;;;;;;;;;;;;;;;;;;5014778;28;19913;-72
2022/12/02 08:38:40;;;;;;;;;;;;;;;;;;5017765;28;20313;-71
2022/12/02 08:41:06;;;;;;;;;;;;;;;;;;5017090;28;19917;-72
2022/12/02 08:43:32;;;;;;;;;;;;;;;;;;5016010;28;19917;-71
2022/12/02 08:45:58;;;;;;;;;;;;;;;;;;5016479;28;19925;-72
2022/12/02 08:48:24;;;;;;;;;;;;;;;;;;5016044;28;19956;-75
2022/12/02 08:50:50;;;;;;;;;;;;;;;;;;5020840;28;20409;-74
2022/12/02 08:53:16;;;;;;;;;;;;;;;;;;5019586;28;19917;-75
2022/12/02 08:55:41;;;;;;;;;;;;;;;;;;5019754;28;20601;-76
2022/12/02 08:58:07;;;;;;;;;;;;;;;;;;5025611;28;19948;-73
2022/12/02 09:00:33;;;;;;;;;;;;;;;;;;5023851;28;20239;-74
2022/12/02 09:02:59;;;;;;;;;;;;;;;;;;5027986;28;20031;-74
2022/12/02 09:05:25;;;;;;;;;;;;;;;;;;5021051;28;19929;-74
2022/12/02 09:07:51;;;;;;;;;;;;;;;;;;5017903;28;19913;-73
2022/12/02 09:10:17;;;;;;;;;;;;;;;;;;5020808;28;19964;-73
2022/12/02 09:12:43;;;;;;;;;;;;;;;;;;5022251;28;19971;-72
2022/12/02 09:15:09;;;;;;;;;;;;;;;;;;5022391;28;19920;-74
2022/12/02 09:17:34;;;;;;;;;;;;;;;;;;5018053;28;19925;-72
2022/12/02 09:20:00;;;;;;;;;;;;;;;;;;5020062;28;20016;-74
2022/12/02 09:22:26;;;;;;;;;;;;;;;;;;5022671;28;20397;-74
2022/12/02 09:24:52;;;;;;;;;;;;;;;;;;5019956;28;19913;-73
2022/12/02 09:27:18;;;;;;;;;;;;;;;;;;5025753;28;19920;-74
2022/12/02 09:29:44;;;;;;;;;;;;;;;;;;5016527;28;19952;-74
2022/12/02 09:32:10;;;;;;;;;;;;;;;;;;5017974;28;19999;-74
2022/12/02 09:34:36;;;;;;;;;;;;;;;;;;5017946;28;20812;-73
2022/12/02 09:37:02;;;;;;;;;;;;;;;;;;5019626;28;19926;-72
2022/12/02 09:39:27;;;;;;;;;;;;;;;;;;5023113;28;19913;-74
2022/12/02 09:41:53;;;;;;;;;;;;;;;;;;5015446;28;19917;-75
2022/12/02 09:44:19;;;;;;;;;;;;;;;;;;5021198;28;19918;-76
2022/12/02 09:46:45;;;;;;;;;;;;;;;;;;5017526;28;19963;-75
2022/12/02 09:49:11;;;;;;;;;;;;;;;;;;5018433;28;19929;-76
2022/12/02 09:51:37;;;;;;;;;;;;;;;;;;5018939;28;19924;-72
2022/12/02 09:54:03;;;;;;;;;;;;;;;;;;5018667;28;19917;-74
2022/12/02 09:56:29;;;;;;;;;;;;;;;;;;5023601;28;20397;-75
2022/12/02 09:58:55;;;;;;;;;;;;;;;;;;5018167;28;19924;-74
2022/12/02 10:01:21;;;;;;;;;;;;;;;;;;5025576;28;20199;-73
2022/12/02 10:03:47;;;;;;;;;;;;;;;;;;5017866;28;20456;-74
2022/12/02 10:06:13;;;;;;;;;;;;;;;;;;5018130;28;19925;-75
2022/12/02 10:08:38;;;;;;;;;;;;;;;;;;5022057;28;19917;-74
2022/12/02 10:11:04;;;;;;;;;;;;;;;;;;5019157;28;19917;-73
2022/12/02 10:13:30;;;;;;;;;;;;;;;;;;5018353;28;19962;-73
2022/12/02 10:15:58;;;;;;;;;;;;;;;;;;5016548;28;19917;-73
2022/12/02 10:18:24;;;;;;;;;;;;;;;;;;5022462;28;19925;-74
2022/12/02 10:20:50;;;;;;;;;;;;;;;;;;5017132;28;19920;-74
2022/12/02 10:23:16;;;;;;;;;;;;;;;;;;5019322;28;20374;-75
2022/12/02 10:25:42;;;;;;;;;;;;;;;;;;5012586;28;19924;-75
2022/12/02 10:28:08;;;;;;;;;;;;;;;;;;5018233;28;20465;-74
2022/12/02 10:30:33;;;;;;;;;;;;;;;;;;5016752;28;19920;-75
2022/12/02 10:32:59;;;;;;;;;;;;;;;;;;5023987;28;20393;-76
2022/12/02 10:35:25;;;;;;;;;;;;;;;;;;5017692;28;20378;-75
2022/12/02 10:37:51;;;;;;;;;;;;;;;;;;5018329;28;19921;-76
2022/12/02 10:40:17;;;;;;;;;;;;;;;;;;5019303;28;19944;-76
2022/12/02 10:42:43;;;;;;;;;;;;;;;;;;5016478;28;19956;-75
2022/12/02 10:45:09;;;;;;;;;;;;;;;;;;5015950;28;20059;-74
2022/12/02 10:47:35;;;;;;;;;;;;;;;;;;5019225;28;20404;-72
2022/12/02 10:50:01;;;;;;;;;;;;;;;;;;5020166;28;19913;-74
2022/12/02 10:52:27;;;;;;;;;;;;;;;;;;5019788;28;19972;-71
2022/12/02 10:54:53;;;;;;;;;;;;;;;;;;5017639;28;20348;-73
2022/12/02 10:57:20;;;;;;;;;;;;;;;;;;5016886;28;20047;-72
2022/12/02 10:59:46;;;;;;;;;;;;;;;;;;5017107;28;20386;-75
2022/12/02 11:02:12;;;;;;;;;;;;;;;;;;5015700;28;19924;-72
2022/12/02 11:04:38;;;;;;;;;;;;;;;;;;5019469;28;19948;-75
2022/12/02 11:07:03;;;;;;;;;;;;;;;;;;5016839;28;19944;-71
2022/12/02 11:09:29;;;;;;;;;;;;;;;;;;5019490;28;19917;-72
2022/12/02 11:11:55;;;;;;;;;;;;;;;;;;5017037;28;20000;-72
2022/12/02 11:14:21;;;;;;;;;;;;;;;;;;5019503;28;19963;-72
2022/12/02 11:16:47;;;;;;;;;;;;;;;;;;5016056;28;19923;-70
2022/12/02 11:19:13;;;;;;;;;;;;;;;;;;5020984;28;19918;-71
2022/12/02 11:21:39;;;;;;;;;;;;;;;;;;5021738;28;20000;-71
2022/12/02 11:24:05;;;;;;;;;;;;;;;;;;5017067;28;19988;-71
2022/12/02 11:26:31;;;;;;;;;;;;;;;;;;5018228;28;19918;-70
2022/12/02 11:28:56;;;;;;;;;;;;;;;;;;5020719;28;19914;-71
2022/12/02 11:31:22;;;;;;;;;;;;;;;;;;5017055;28;20374;-71
2022/12/02 11:33:48;;;;;;;;;;;;;;;;;;5017595;28;19925;-73
2022/12/02 11:36:14;;;;;;;;;;;;;;;;;;5020396;28;19921;-73
2022/12/02 11:38:40;;;;;;;;;;;;;;;;;;5017587;28;19929;-74
2022/12/02 11:41:06;;;;;;;;;;;;;;;;;;5018676;28;19918;-73
2022/12/02 11:43:32;;;;;;;;;;;;;;;;;;5015835;28;20046;-73
2022/12/02 11:45:58;;;;;;;;;;;;;;;;;;5019113;28;19978;-73
2022/12/02 11:48:24;;;;;;;;;;;;;;;;;;5014464;28;19921;-74
2022/12/02 11:50:50;;;;;;;;;;;;;;;;;;5016956;28;20290;-73
2022/12/02 11:53:16;;;;;;;;;;;;;;;;;;5013723;28;19913;-73
2022/12/02 11:55:41;;;;;;;;;;;;;;;;;;5018466;28;20444;-72
2022/12/02 11:58:07;;;;;;;;;;;;;;;;;;5016491;28;20404;-69
2022/12/02 12:00:33;;;;;;;;;;;;;;;;;;5016679;28;19917;-73
2022/12/02 12:02:59;;;;;;;;;;;;;;;;;;5012219;28;19961;-75
2022/12/02 12:05:25;;;;;;;;;;;;;;;;;;5019382;28;19925;-74
2022/12/02 12:07:51;;;;;;;;;;;;;;;;;;5021607;28;19913;-72
2022/12/02 12:10:17;;;;;;;;;;;;;;;;;;5017827;28;19920;-73
2022/12/02 12:12:43;;;;;;;;;;;;;;;;;;5020102;28;19917;-73
2022/12/02 12:15:08;;;;;;;;;;;;;;;;;;5014951;28;19917;-76
2022/12/02 12:17:34;;;;;;;;;;;;;;;;;;5016442;28;20305;-74
2022/12/02 12:20:00;;;;;;;;;;;;;;;;;;5015010;28;19913;-73
2022/12/02 12:22:26;;;;;;;;;;;;;;;;;;5017855;28;20348;-73
2022/12/02 12:24:52;;;;;;;;;;;;;;;;;;5013148;28;20498;-73
2022/12/02 12:27:18;;;;;;;;;;;;;;;;;;5018372;28;19928;-77
2022/12/02 12:29:44;;;;;;;;;;;;;;;;;;5015578;28;19917;-77
2022/12/02 12:32:10;;;;;;;;;;;;;;;;;;5015581;28;19924;-72
2022/12/02 12:34:36;;;;;;;;;;;;;;;;;;5015087;28;20289;-74
2022/12/02 12:37:03;;;;;;;;;;;;;;;;;;5018301;28;19921;-73
2022/12/02 12:39:28;;;;;;;;;;;;;;;;;;5014294;28;19917;-73
2022/12/02 12:41:54;;;;;;;;;;;;;;;;;;5020429;28;20408;-73
2022/12/02 12:44:20;;;;;;;;;;;;;;;;;;5016096;28;19944;-73
2022/12/02 12:46:46;;;;;;;;;;;;;;;;;;5017615;28;19913;-72
2022/12/02 12:49:12;;;;;;;;;;;;;;;;;;5014952;28;19971;-71
2022/12/02 12:51:38;;;;;;;;;;;;;;;;;;5018314;28;19944;-74
2022/12/02 12:54:04;;;;;;;;;;;;;;;;;;5015780;28;19926;-74
2022/12/02 12:56:30;;;;;;;;;;;;;;;;;;5021739;28;19918;-74
2022/12/02 12:58:55;;;;;;;;;;;;;;;;;;5020602;28;19921;-74
2022/12/02 13:01:21;;;;;;;;;;;;;;;;;;5018110;28;19924;-74
2022/12/02 13:03:47;;;;;;;;;;;;;;;;;;5015993;28;19920;-74
2022/12/02 13:06:13;;;;;;;;;;;;;;;;;;5017604;28;19960;-74
2022/12/02 13:08:39;;;;;;;;;;;;;;;;;;5020752;28;20013;-75
2022/12/02 13:11:05;;;;;;;;;;;;;;;;;;5012023;28;20529;-75
2022/12/02 13:13:31;;;;;;;;;;;;;;;;;;5016041;28;19924;-77
2022/12/02 13:15:57;;;;;;;;;;;;;;;;;;5018449;28;20012;-77
2022/12/02 13:18:23;;;;;;;;;;;;;;;;;;5020567;28;19929;-69
2022/12/02 13:20:48;;;;;;;;;;;;;;;;;;5014298;28;20062;-68
2022/12/02 13:23:14;;;;;;;;;;;;;;;;;;5020039;28;19939;-77
2022/12/02 13:25:40;;;;;;;;;;;;;;;;;;5018244;28;20011;-75
2022/12/02 13:28:06;;;;;;;;;;;;;;;;;;5019366;28;19917;-76
2022/12/02 13:30:32;;;;;;;;;;;;;;;;;;5016167;28;19917;-75
2022/12/02 13:32:58;;;;;;;;;;;;;;;;;;5016530;28;20781;-74
2022/12/02 13:35:24;;;;;;;;;;;;;;;;;;5020483;28;19948;-73
2022/12/02 13:37:50;;;;;;;;;;;;;;;;;;5019076;28;20024;-76
2022/12/02 13:40:16;;;;;;;;;;;;;;;;;;5020361;28;20003;-74
2022/12/02 13:42:42;;;;;;;;;;;;;;;;;;5017401;28;20193;-75
2022/12/02 13:45:08;;;;;;;;;;;;;;;;;;5017572;28;20376;-76
2022/12/02 13:47:34;;;;;;;;;;;;;;;;;;5020259;28;19914;-77
2022/12/02 13:49:59;;;;;;;;;;;;;;;;;;5021972;28;19997;-72
2022/12/02 13:52:25;;;;;;;;;;;;;;;;;;5016073;28;20477;-76
2022/12/02 13:54:51;;;;;;;;;;;;;;;;;;5016945;28;19909;-75
2022/12/02 13:57:17;;;;;;;;;;;;;;;;;;5016057;28;20328;-75
2022/12/02 13:59:43;;;;;;;;;;;;;;;;;;5020712;28;19917;-74
2022/12/02 14:02:09;;;;;;;;;;;;;;;;;;5019768;28;20279;-73
2022/12/02 14:04:35;;;;;;;;;;;;;;;;;;5024900;28;19917;-76
2022/12/02 14:07:01;;;;;;;;;;;;;;;;;;5019324;28;19934;-77
2022/12/02 14:09:26;;;;;;;;;;;;;;;;;;5017027;28;19921;-77
2022/12/02 14:11:52;;;;;;;;;;;;;;;;;;5020727;28;19967;-75
2022/12/02 14:14:18;;;;;;;;;;;;;;;;;;5018048;28;19913;-78
2022/12/02 14:16:45;;;;;;;;;;;;;;;;;;5021845;28;19939;-78
2022/12/02 14:19:11;;;;;;;;;;;;;;;;;;5020295;28;19976;-72
2022/12/02 14:21:36;;;;;;;;;;;;;;;;;;5020848;28;19960;-73
2022/12/02 14:24:02;;;;;;;;;;;;;;;;;;5019754;28;19945;-74
2022/12/02 14:26:28;;;;;;;;;;;;;;;;;;5021627;28;19963;-74
2022/12/02 14:28:54;;;;;;;;;;;;;;;;;;5014188;28;19917;-74
2022/12/02 14:31:20;;;;;;;;;;;;;;;;;;5018128;28;20012;-74
2022/12/02 14:33:46;;;;;;;;;;;;;;;;;;5016956;28;19956;-75
2022/12/02 14:36:12;;;;;;;;;;;;;;;;;;5016581;28;19974;-74
2022/12/02 14:38:38;;;;;;;;;;;;;;;;;;5015994;28;19928;-74
2022/12/02 14:41:04;;;;;;;;;;;;;;;;;;5020120;28;19925;-73
2022/12/02 14:43:29;;;;;;;;;;;;;;;;;;5018351;28;19922;-73
2022/12/02 14:45:55;;;;;;;;;;;;;;;;;;5024652;28;19921;-73
2022/12/02 14:48:21;;;;;;;;;;;;;;;;;;5025560;28;19968;-72
2022/12/02 14:50:47;;;;;;;;;;;;;;;;;;5023956;28;19918;-76
2022/12/02 14:53:13;;;;;;;;;;;;;;;;;;5018267;28;20015;-75
2022/12/02 14:55:39;;;;;;;;;;;;;;;;;;5020309;28;19913;-75
2022/12/02 14:58:05;;;;;;;;;;;;;;;;;;5016504;28;19925;-78
2022/12/02 15:00:31;;;;;;;;;;;;;;;;;;5015873;28;19917;-76
2022/12/02 15:02:57;;;;;;;;;;;;;;;;;;5024116;28;20290;-75
2022/12/02 15:05:23;;;;;;;;;;;;;;;;;;5020695;28;19921;-73
2022/12/02 15:07:49;;;;;;;;;;;;;;;;;;5025438;28;20019;-72
2022/12/02 15:10:14;;;;;;;;;;;;;;;;;;5015792;28;20008;-75
2022/12/02 15:12:40;;;;;;;;;;;;;;;;;;5016051;28;19914;-79
2022/12/02 15:15:06;;;;;;;;;;;;;;;;;;5020163;28;20309;-80
2022/12/02 15:17:32;;;;;;;;;;;;;;;;;;5021877;28;20487;-78
2022/12/02 15:19:58;;;;;;;;;;;;;;;;;;5022705;28;20016;-79
2022/12/02 15:22:24;;;;;;;;;;;;;;;;;;5021120;28;19914;-79
2022/12/02 15:24:53;;;;;;;;;;;;;;;;;;5016392;28;19979;-78
2022/12/02 15:27:18;;;;;;;;;;;;;;;;;;5022096;28;19921;-78
2022/12/02 15:29:44;;;;;;;;;;;;;;;;;;5017843;28;20386;-75
2022/12/02 15:32:10;;;;;;;;;;;;;;;;;;5022792;28;19913;-82
2022/12/02 15:34:36;;;;;;;;;;;;;;;;;;5020153;28;19913;-80
2022/12/02 15:37:02;;;;;;;;;;;;;;;;;;5018829;28;19967;-82
2022/12/02 15:39:28;;;;;;;;;;;;;;;;;;5022799;28;19917;-81
2022/12/02 15:41:54;;;;;;;;;;;;;;;;;;5016667;28;19913;-83
2022/12/02 15:44:20;;;;;;;;;;;;;;;;;;5018803;28;19917;-81
2022/12/02 15:46:46;;;;;;;;;;;;;;;;;;5018509;28;19953;-80
2022/12/02 15:49:12;;;;;;;;;;;;;;;;;;5021694;28;20143;-80
2022/12/02 15:51:38;;;;;;;;;;;;;;;;;;5018764;28;19996;-79
2022/12/02 15:54:04;;;;;;;;;;;;;;;;;;5019562;28;20006;-81
2022/12/02 15:56:33;;;;;;;;;;;;;;;;;;5013865;28;19918;-76
2022/12/02 15:58:58;;;;;;;;;;;;;;;;;;5019552;28;19922;-76
2022/12/02 16:01:25;;;;;;;;;;;;;;;;;;5015641;28;20421;-76
2022/12/02 16:03:51;;;;;;;;;;;;;;;;;;5025390;28;20501;-75
2022/12/02 16:06:17;;;;;;;;;;;;;;;;;;5023076;28;20405;-77
2022/12/02 16:08:43;;;;;;;;;;;;;;;;;;5026145;28;20417;-76
2022/12/02 16:11:11;;;;;;;;;;;;;;;;;;5021417;28;19918;-74
2022/12/02 16:13:37;;;;;;;;;;;;;;;;;;5019278;28;19917;-74
2022/12/02 16:16:03;;;;;;;;;;;;;;;;;;5021805;28;19918;-75
2022/12/02 16:18:29;;;;;;;;;;;;;;;;;;5019246;28;19971;-75
2022/12/02 16:20:55;;;;;;;;;;;;;;;;;;5024682;28;20369;-75
2022/12/02 16:23:21;;;;;;;;;;;;;;;;;;5018400;28;19960;-83
2022/12/02 16:25:47;;;;;;;;;;;;;;;;;;5023131;28;19917;-78
2022/12/02 16:28:12;;;;;;;;;;;;;;;;;;5016579;28;21273;-80
2022/12/02 16:30:39;;;;;;;;;;;;;;;;;;5019429;28;19917;-81
2022/12/02 16:33:04;;;;;;;;;;;;;;;;;;5017483;28;20290;-72
2022/12/02 16:35:30;;;;;;;;;;;;;;;;;;5017657;28;19917;-79
2022/12/02 16:37:56;;;;;;;;;;;;;;;;;;5016173;28;20282;-76
2022/12/02 16:40:22;;;;;;;;;;;;;;;;;;5018019;28;20004;-76